Kildin — UBOJ6 — position and weather

sailwx.info

Track history (hours):
 
Tides and Currents Weather Stations Pressure Air Temp Water Temp Dewpoint Dewpoint Depression Visibility Wind Speed Wind Dir Waves Ship Positions

Kildin

Last reported at 2018-Jun-24 06:28 UTC. Time now 2018-Jun-24 06:48 UTC.
Position N 68°59' E 033°04'.

Length 30 m; draft 3.5 m.

Type: Tug. MMSI: 273354290.

Date/timePositionNaut miles runAvg speedWind from/ knotsBaromVisibWave heightAir tempDewpointWater temp
2018-Jun-24 06:28N 68°59' E 033°04'1 2.0
2018-Jun-24 05:58N 68°58' E 033°03'0 0.2
2018-Jun-24 05:28N 68°58' E 033°03'1 3.0
2018-Jun-24 05:00N 68°60' E 033°02'0 0.6
2018-Jun-24 04:25N 68°59' E 033°03'0 0.3
2018-Jun-24 03:58N 68°59' E 033°03'1 2.0
2018-Jun-24 03:30N 69°00' E 033°03'1 1.9
2018-Jun-24 02:58N 68°59' E 033°03'0 0.0
2018-Jun-24 02:28N 68°59' E 033°03'0 0.0
2018-Jun-24 01:58N 68°59' E 033°03'0 0.0
2018-Jun-24 01:28N 68°59' E 033°04'0 0.0
2018-Jun-24 00:58N 68°59' E 033°03'0 0.0
2018-Jun-24 00:28N 68°59' E 033°04'0 0.0
2018-Jun-23 23:58N 68°59' E 033°03'0 0.0
2018-Jun-23 23:28N 68°59' E 033°04'0 0.0
2018-Jun-23 22:58N 68°59' E 033°04'0 0.0
2018-Jun-23 22:28N 68°59' E 033°04'0 0.0
2018-Jun-23 21:58N 68°59' E 033°04'0 0.0
2018-Jun-23 21:28N 68°59' E 033°04'0 0.0
2018-Jun-23 20:58N 68°59' E 033°04'0 0.4
2018-Jun-23 20:28N 68°59' E 033°03'0 0.4
2018-Jun-23 19:58N 68°59' E 033°03'0 0.0
2018-Jun-23 19:25N 68°59' E 033°04'0 0.0
2018-Jun-23 18:58N 68°59' E 033°04'0 0.0
2018-Jun-23 18:25N 68°59' E 033°03'0 0.0
2018-Jun-23 17:58N 68°59' E 033°03'0 0.0
2018-Jun-23 17:25N 68°59' E 033°04'0 0.0
2018-Jun-23 16:58N 68°59' E 033°03'0 0.0
2018-Jun-23 16:28N 68°59' E 033°04'0 0.0
2018-Jun-23 15:58N 68°59' E 033°04'0 0.0
2018-Jun-23 15:28N 68°59' E 033°04'0 0.0
2018-Jun-23 14:58N 68°59' E 033°04'0 0.0
2018-Jun-23 14:28N 68°59' E 033°04'3 5.7
2018-Jun-23 14:00N 68°57' E 033°01'1 1.4
2018-Jun-23 13:30N 68°57' E 033°01'2 3.5
2018-Jun-23 12:58N 68°59' E 033°04'0 0.0
2018-Jun-23 12:28N 68°59' E 033°04'0 0.0
2018-Jun-23 11:58N 68°59' E 033°04'0 0.0
2018-Jun-23 11:28N 68°59' E 033°03'0 0.0
2018-Jun-23 10:58N 68°59' E 033°04'0 0.0
2018-Jun-23 10:28N 68°59' E 033°03'0 0.0
2018-Jun-23 09:58N 68°59' E 033°04'0 0.0
2018-Jun-23 09:28N 68°59' E 033°04'0 0.0
2018-Jun-23 08:58N 68°59' E 033°03'0 0.0
2018-Jun-23 08:28N 68°59' E 033°04'0 0.0
2018-Jun-23 07:58N 68°59' E 033°04'0 0.0
2018-Jun-23 07:28N 68°59' E 033°04'0 0.0
2018-Jun-23 06:58N 68°59' E 033°03'0 0.0
2018-Jun-23 06:28N 68°59' E 033°04'0 0.0
2018-Jun-23 05:58N 68°59' E 033°04'0 0.0
2018-Jun-23 05:28N 68°59' E 033°04'0 0.0
2018-Jun-23 04:58N 68°59' E 033°04'0 0.0
2018-Jun-23 04:28N 68°59' E 033°03'0 0.0
2018-Jun-23 03:58N 68°59' E 033°03'0 0.0
2018-Jun-23 03:28N 68°59' E 033°03'0 0.0
2018-Jun-23 02:58N 68°59' E 033°03'0 0.0
2018-Jun-23 02:22N 68°59' E 033°03'0 0.0
2018-Jun-23 01:58N 68°59' E 033°03'0 0.0
2018-Jun-23 01:28N 68°59' E 033°04'0 0.0
2018-Jun-23 00:58N 68°59' E 033°03'0 0.0
2018-Jun-23 00:28N 68°59' E 033°03'0 0.0
2018-Jun-22 23:58N 68°59' E 033°04'0 0.0
2018-Jun-22 23:28N 68°59' E 033°03'0 0.0
2018-Jun-22 22:58N 68°59' E 033°03'0 0.0
2018-Jun-22 22:28N 68°59' E 033°03'0 0.0
2018-Jun-22 21:58N 68°59' E 033°04'0 0.0
2018-Jun-22 21:28N 68°59' E 033°04'0 0.0
2018-Jun-22 20:58N 68°59' E 033°04'0 0.0
2018-Jun-22 20:28N 68°59' E 033°04'0 0.0
2018-Jun-22 19:58N 68°59' E 033°03'0 0.0
2018-Jun-22 19:28N 68°59' E 033°04'0 0.0
2018-Jun-22 18:58N 68°59' E 033°03'0 0.0
2018-Jun-22 18:28N 68°59' E 033°03'0 0.0
2018-Jun-22 17:58N 68°59' E 033°04'0 0.0
2018-Jun-22 17:28N 68°59' E 033°04'0 0.0
2018-Jun-22 16:58N 68°59' E 033°03'0 0.0
2018-Jun-22 16:28N 68°59' E 033°04'0 0.0
2018-Jun-22 15:58N 68°59' E 033°04'0 0.0
2018-Jun-22 15:28N 68°59' E 033°04'0 0.0
2018-Jun-22 14:58N 68°59' E 033°03'0 0.0
2018-Jun-22 14:28N 68°59' E 033°03'0 0.0
2018-Jun-22 13:58N 68°59' E 033°03'0 0.0
2018-Jun-22 13:28N 68°59' E 033°04'0 0.0
2018-Jun-22 12:58N 68°59' E 033°04'0 0.0
2018-Jun-22 12:28N 68°59' E 033°04'0 0.0
2018-Jun-22 11:58N 68°59' E 033°04'0 0.0
2018-Jun-22 11:28N 68°59' E 033°04'0 0.0
2018-Jun-22 10:58N 68°59' E 033°03'0 0.0
2018-Jun-22 10:28N 68°59' E 033°04'0 0.9
2018-Jun-22 10:00N 68°59' E 033°03'0 0.2
2018-Jun-22 09:30N 68°59' E 033°03'0 0.1
2018-Jun-22 09:00N 68°59' E 033°03'0 0.9
2018-Jun-22 08:28N 68°59' E 033°04'0 0.0
2018-Jun-22 07:58N 68°59' E 033°04'0 0.0
2018-Jun-22 07:28N 68°59' E 033°04'0 0.0
2018-Jun-22 06:58N 68°59' E 033°04'0 0.0
2018-Jun-22 06:28N 68°59' E 033°03'0 0.0
2018-Jun-22 05:58N 68°59' E 033°04'0 0.2
2018-Jun-22 05:28N 68°59' E 033°04'0 0.4
2018-Jun-22 04:58N 68°59' E 033°03'1 1.9
2018-Jun-22 04:29N 68°60' E 033°03'3 6.0
2018-Jun-22 04:00N 69°03' E 033°03'1 0.4
2018-Jun-22 02:26N 69°03' E 033°04'3 6.7
2018-Jun-22 02:00N 69°00' E 033°03'1 2.4
2018-Jun-22 01:28N 68°59' E 033°03'0 0.0
2018-Jun-22 00:58N 68°59' E 033°04'0 0.0
2018-Jun-22 00:28N 68°59' E 033°03'1 1.3
2018-Jun-21 23:58N 68°59' E 033°03'1 1.3
2018-Jun-21 23:28N 68°59' E 033°04'0 0.0
2018-Jun-21 22:58N 68°59' E 033°03'0 0.0
2018-Jun-21 22:28N 68°59' E 033°04'0 0.0
2018-Jun-21 21:58N 68°59' E 033°04'0 0.0
2018-Jun-21 21:28N 68°59' E 033°04'0 0.0
2018-Jun-21 20:58N 68°59' E 033°03'0 0.0
2018-Jun-21 20:28N 68°59' E 033°04'0 0.0
2018-Jun-21 19:58N 68°59' E 033°04'0 0.0
2018-Jun-21 19:28N 68°59' E 033°03'0 0.0
2018-Jun-21 18:58N 68°59' E 033°03'0 0.0
2018-Jun-21 18:28N 68°59' E 033°03'0 0.0
2018-Jun-21 17:58N 68°59' E 033°04'0 0.0
2018-Jun-21 17:25N 68°59' E 033°04'0 0.0
2018-Jun-21 13:58N 68°59' E 033°04'0 0.0
2018-Jun-21 13:13N 68°59' E 033°04'0 0.0
2018-Jun-21 12:55N 68°59' E 033°04'0 0.0
2018-Jun-21 12:27N 68°59' E 033°04'0 0.9
2018-Jun-21 11:57N 68°59' E 033°03'0 1.0
2018-Jun-21 11:30N 68°59' E 033°03'0 0.6
2018-Jun-21 10:56N 68°59' E 033°04'0 1.0
2018-Jun-21 10:30N 68°59' E 033°03'0 0.9
2018-Jun-21 10:00N 68°59' E 033°03'0 0.0
2018-Jun-21 09:30N 68°59' E 033°03'0 0.2
2018-Jun-21 08:52N 68°59' E 033°03'0 0.5
2018-Jun-21 08:26N 68°59' E 033°03'0 0.1
2018-Jun-21 06:16N 68°59' E 033°04'0 0.0
2018-Jun-21 04:46N 68°59' E 033°03'0 0.0
2018-Jun-21 02:55N 68°59' E 033°03'0 0.0
2018-Jun-21 02:28N 68°59' E 033°03'0 0.0
2018-Jun-21 01:58N 68°59' E 033°03'0 0.0
2018-Jun-21 01:28N 68°59' E 033°03'0 0.0
2018-Jun-21 00:58N 68°59' E 033°03'0 0.0
2018-Jun-21 00:28N 68°59' E 033°03'0 0.0
2018-Jun-20 23:58N 68°59' E 033°04'0 0.0
2018-Jun-20 23:28N 68°59' E 033°04'0 0.0
2018-Jun-20 22:58N 68°59' E 033°03'0 0.0
2018-Jun-20 22:28N 68°59' E 033°04'0 0.0
2018-Jun-20 21:58N 68°59' E 033°04'0 0.0
2018-Jun-20 21:28N 68°59' E 033°04'0 0.0
2018-Jun-20 20:58N 68°59' E 033°03'0 0.0
2018-Jun-20 20:28N 68°59' E 033°03'0 0.0
2018-Jun-20 19:58N 68°59' E 033°04'0 0.0
2018-Jun-20 19:28N 68°59' E 033°04'0 0.0
2018-Jun-20 18:58N 68°59' E 033°03'0 0.0
2018-Jun-20 18:28N 68°59' E 033°04'0 0.0
2018-Jun-20 17:58N 68°59' E 033°03'0 0.0
2018-Jun-20 17:28N 68°59' E 033°04'0 0.0
2018-Jun-20 16:58N 68°59' E 033°03'0 0.0
2018-Jun-20 16:28N 68°59' E 033°04'0 0.0
2018-Jun-20 15:58N 68°59' E 033°03'0 0.0
2018-Jun-20 15:28N 68°59' E 033°03'0 0.0
2018-Jun-20 14:58N 68°59' E 033°04'0 0.0
2018-Jun-20 14:28N 68°59' E 033°04'0 0.0
2018-Jun-20 13:58N 68°59' E 033°04'0 0.0
2018-Jun-20 13:28N 68°59' E 033°03'0 0.0
2018-Jun-20 12:58N 68°59' E 033°04'0 0.0
2018-Jun-20 12:28N 68°59' E 033°04'0 0.0
2018-Jun-20 11:58N 68°59' E 033°04'0 0.0
2018-Jun-20 11:28N 68°59' E 033°03'0 0.0
2018-Jun-20 10:58N 68°59' E 033°04'0 0.0
2018-Jun-20 10:28N 68°59' E 033°04'0 0.0
2018-Jun-20 09:58N 68°59' E 033°03'0 0.0
2018-Jun-20 09:28N 68°59' E 033°04'0 0.0
2018-Jun-20 08:55N 68°59' E 033°04'0 0.0
2018-Jun-20 08:28N 68°59' E 033°04'0 0.0
2018-Jun-20 07:58N 68°59' E 033°04'0 0.0
2018-Jun-20 07:28N 68°59' E 033°03'0 0.0
2018-Jun-20 06:58N 68°59' E 033°04'0 0.0
2018-Jun-20 06:28N 68°59' E 033°04'0 0.0
2018-Jun-20 05:58N 68°59' E 033°04'0 0.0
2018-Jun-20 05:28N 68°59' E 033°04'0 0.0
2018-Jun-20 04:58N 68°59' E 033°04'0 0.0
2018-Jun-20 04:28N 68°59' E 033°04'0 0.0
2018-Jun-20 03:58N 68°59' E 033°03'0 0.0
2018-Jun-20 03:28N 68°59' E 033°03'0 0.0
2018-Jun-20 02:58N 68°59' E 033°03'0 0.0
2018-Jun-20 02:28N 68°59' E 033°03'0 0.0
2018-Jun-20 01:58N 68°59' E 033°04'0 0.0
2018-Jun-20 01:28N 68°59' E 033°04'0 0.0
2018-Jun-20 00:58N 68°59' E 033°03'0 0.0
2018-Jun-20 00:28N 68°59' E 033°03'0 0.0
2018-Jun-19 23:58N 68°59' E 033°04'0 0.0
2018-Jun-19 23:25N 68°59' E 033°03'0 0.0
2018-Jun-19 22:58N 68°59' E 033°03'0 0.0
2018-Jun-19 22:28N 68°59' E 033°04'0 0.0
2018-Jun-19 21:58N 68°59' E 033°04'0 0.0
2018-Jun-19 21:28N 68°59' E 033°04'0 0.0
2018-Jun-19 20:58N 68°59' E 033°03'0 0.0
2018-Jun-19 20:28N 68°59' E 033°04'0 0.0
2018-Jun-19 19:58N 68°59' E 033°04'0 0.0
2018-Jun-19 19:28N 68°59' E 033°03'0 0.0
2018-Jun-19 18:58N 68°59' E 033°04'0 0.0
2018-Jun-19 18:28N 68°59' E 033°04'0 0.0
2018-Jun-19 17:58N 68°59' E 033°03'0 0.0
2018-Jun-19 17:28N 68°59' E 033°04'0 0.1
2018-Jun-19 16:59N 68°59' E 033°03'0 0.3
2018-Jun-19 16:28N 68°59' E 033°03'1 1.2
2018-Jun-19 16:00N 68°60' E 033°02'1 1.0
2018-Jun-19 15:28N 68°59' E 033°03'0 0.3
2018-Jun-19 14:58N 68°59' E 033°04'0 0.0
2018-Jun-19 14:28N 68°59' E 033°03'0 0.0
2018-Jun-19 13:58N 68°59' E 033°03'0 0.0
2018-Jun-19 13:28N 68°59' E 033°04'0 0.0
2018-Jun-19 12:58N 68°59' E 033°04'1 2.6
2018-Jun-19 12:30N 69°00' E 033°02'3 0.4
2018-Jun-19 04:47N 69°03' E 033°05'2 6.7
2018-Jun-19 04:29N 69°01' E 033°03'2 4.3
2018-Jun-19 04:00N 68°59' E 033°03'0 0.0
2018-Jun-19 03:28N 68°59' E 033°03'0 0.0
2018-Jun-19 02:58N 68°59' E 033°03'0 0.0
2018-Jun-19 02:25N 68°59' E 033°03'0 0.0
2018-Jun-19 01:58N 68°59' E 033°03'0 0.0
2018-Jun-19 01:28N 68°59' E 033°04'0 0.0
2018-Jun-19 00:58N 68°59' E 033°04'0 0.0
2018-Jun-19 00:28N 68°59' E 033°04'0 0.0
2018-Jun-18 23:58N 68°59' E 033°03'0 0.0
2018-Jun-18 23:28N 68°59' E 033°03'0 0.0
2018-Jun-18 22:58N 68°59' E 033°03'0 0.0
2018-Jun-18 22:28N 68°59' E 033°04'0 0.0
2018-Jun-18 21:58N 68°59' E 033°03'0 0.0
2018-Jun-18 21:28N 68°59' E 033°04'0 0.0
2018-Jun-18 20:58N 68°59' E 033°03'0 0.0
2018-Jun-18 20:28N 68°59' E 033°03'0 0.0
2018-Jun-18 19:58N 68°59' E 033°03'0 0.0
2018-Jun-18 19:28N 68°59' E 033°03'0 0.0
2018-Jun-18 18:58N 68°59' E 033°04'0 0.0
2018-Jun-18 18:28N 68°59' E 033°03'0 0.0
2018-Jun-18 17:58N 68°59' E 033°03'0 0.0
2018-Jun-18 17:25N 68°59' E 033°03'0 0.0
2018-Jun-18 16:58N 68°59' E 033°03'0 0.0
2018-Jun-18 16:28N 68°59' E 033°03'0 0.0
2018-Jun-18 15:55N 68°59' E 033°04'0 0.0
2018-Jun-18 15:28N 68°59' E 033°04'0 0.0
2018-Jun-18 14:58N 68°59' E 033°03'0 0.0
2018-Jun-18 14:28N 68°59' E 033°03'0 0.0
2018-Jun-18 13:58N 68°59' E 033°04'0 0.0
2018-Jun-18 13:28N 68°59' E 033°04'0 0.0
2018-Jun-18 12:58N 68°59' E 033°03'0 0.0
2018-Jun-18 12:25N 68°59' E 033°04'0 0.0
2018-Jun-18 11:58N 68°59' E 033°03'0 0.0
2018-Jun-18 11:25N 68°59' E 033°04'0 0.0
2018-Jun-18 10:58N 68°59' E 033°03'0 0.4
2018-Jun-18 10:30N 68°59' E 033°03'3 6.5
2018-Jun-18 10:01N 69°02' E 033°03'1 1.5
2018-Jun-18 09:30N 69°03' E 033°04'0 0.2
2018-Jun-18 08:59N 69°03' E 033°04'0 0.1
2018-Jun-18 06:36N 69°03' E 033°04'1 5.9
2018-Jun-18 06:30N 69°03' E 033°03'3 6.4
2018-Jun-18 06:00N 68°59' E 033°03'0 0.6
2018-Jun-18 05:28N 68°59' E 033°04'0 0.0
2018-Jun-18 04:58N 68°59' E 033°03'0 0.0
2018-Jun-18 04:28N 68°59' E 033°03'0 0.0
2018-Jun-18 03:58N 68°59' E 033°03'0 0.0
2018-Jun-18 03:28N 68°59' E 033°03'0 0.0
2018-Jun-18 02:58N 68°59' E 033°03'0 0.0
2018-Jun-18 02:25N 68°59' E 033°04'0 0.0
2018-Jun-18 01:58N 68°59' E 033°03'0 0.0
2018-Jun-18 01:28N 68°59' E 033°04'0 0.0
2018-Jun-18 00:58N 68°59' E 033°04'0 0.0
2018-Jun-18 00:28N 68°59' E 033°04'0 0.0
2018-Jun-17 23:58N 68°59' E 033°04'0 0.0
2018-Jun-17 23:28N 68°59' E 033°03'0 0.0
2018-Jun-17 22:58N 68°59' E 033°03'0 0.0
2018-Jun-17 22:28N 68°59' E 033°03'0 0.0
2018-Jun-17 21:58N 68°59' E 033°04'0 0.0
2018-Jun-17 21:28N 68°59' E 033°03'0 0.0
2018-Jun-17 20:58N 68°59' E 033°04'0 0.0
2018-Jun-17 20:25N 68°59' E 033°03'0 0.0
2018-Jun-17 19:58N 68°59' E 033°03'0 0.0
2018-Jun-17 19:28N 68°59' E 033°03'0 0.0
2018-Jun-17 18:58N 68°59' E 033°04'0 0.0
2018-Jun-17 18:28N 68°59' E 033°03'0 0.0
2018-Jun-17 17:58N 68°59' E 033°03'0 0.0
2018-Jun-17 17:28N 68°59' E 033°03'0 0.0
2018-Jun-17 16:58N 68°59' E 033°03'0 0.0
2018-Jun-17 16:28N 68°59' E 033°03'0 0.0
2018-Jun-17 15:58N 68°59' E 033°03'0 0.0
2018-Jun-17 15:28N 68°59' E 033°04'0 0.0
2018-Jun-17 14:58N 68°59' E 033°04'0 0.0
2018-Jun-17 14:28N 68°59' E 033°04'0 0.0
2018-Jun-17 13:58N 68°59' E 033°03'0 0.0
2018-Jun-17 13:28N 68°59' E 033°04'0 0.0
2018-Jun-17 12:58N 68°59' E 033°04'0 0.0
2018-Jun-17 12:28N 68°59' E 033°03'0 0.0
2018-Jun-17 11:58N 68°59' E 033°04'0 0.0
2018-Jun-17 11:28N 68°59' E 033°03'0 0.0
2018-Jun-17 10:58N 68°59' E 033°03'0 0.0
2018-Jun-17 10:28N 68°59' E 033°03'0 0.0
2018-Jun-17 09:58N 68°59' E 033°04'0 0.0
2018-Jun-17 09:28N 68°59' E 033°03'0 0.0
2018-Jun-17 08:58N 68°59' E 033°04'0 0.0
2018-Jun-17 08:28N 68°59' E 033°03'0 0.0
2018-Jun-17 07:58N 68°59' E 033°04'0 0.0
2018-Jun-17 07:28N 68°59' E 033°03'0 0.0
2018-Jun-17 06:58N 68°59' E 033°04'0 0.0
2018-Jun-17 06:28N 68°59' E 033°04'0 0.0
2018-Jun-17 05:58N 68°59' E 033°04'0 0.0
2018-Jun-17 05:28N 68°59' E 033°03'0 0.0
2018-Jun-17 04:58N 68°59' E 033°03'0 0.0
2018-Jun-17 04:28N 68°59' E 033°03'0 0.0
2018-Jun-17 03:58N 68°59' E 033°03'0 0.0
2018-Jun-17 03:28N 68°59' E 033°03'0 0.0
2018-Jun-17 02:58N 68°59' E 033°03'2 3.1
2018-Jun-17 02:28N 69°00' E 033°01'2 3.3
2018-Jun-17 02:00N 68°59' E 033°03'0 0.1
2018-Jun-17 01:25N 68°59' E 033°03'0 0.0
2018-Jun-17 00:58N 68°59' E 033°03'0 0.0
2018-Jun-17 00:28N 68°59' E 033°04'0 0.0
2018-Jun-16 23:58N 68°59' E 033°04'0 0.0
2018-Jun-16 23:28N 68°59' E 033°04'0 0.0
2018-Jun-16 22:58N 68°59' E 033°03'0 0.0
2018-Jun-16 22:28N 68°59' E 033°04'0 0.0
2018-Jun-16 21:58N 68°59' E 033°04'0 0.0
2018-Jun-16 21:28N 68°59' E 033°03'0 0.0
2018-Jun-16 20:58N 68°59' E 033°03'0 0.0
2018-Jun-16 20:28N 68°59' E 033°03'0 0.0
2018-Jun-16 19:58N 68°59' E 033°03'0 0.0
2018-Jun-16 19:28N 68°59' E 033°03'0 0.0
2018-Jun-16 18:58N 68°59' E 033°03'0 0.0
2018-Jun-16 18:28N 68°59' E 033°03'0 0.0
2018-Jun-16 17:58N 68°59' E 033°03'0 0.0
2018-Jun-16 17:28N 68°59' E 033°03'0 0.0
2018-Jun-16 16:58N 68°59' E 033°03'0 0.0
2018-Jun-16 16:28N 68°59' E 033°04'0 0.0
2018-Jun-16 15:58N 68°59' E 033°04'0 0.0
2018-Jun-16 15:28N 68°59' E 033°04'0 0.0
2018-Jun-16 14:58N 68°59' E 033°03'0 0.0
2018-Jun-16 14:28N 68°59' E 033°03'0 0.0
2018-Jun-16 13:58N 68°59' E 033°04'0 0.0
2018-Jun-16 13:28N 68°59' E 033°04'0 0.0
2018-Jun-16 12:58N 68°59' E 033°04'0 0.0
2018-Jun-16 12:28N 68°59' E 033°04'0 0.0
2018-Jun-16 11:58N 68°59' E 033°04'0 0.0
2018-Jun-16 11:28N 68°59' E 033°04'0 0.0
2018-Jun-16 10:58N 68°59' E 033°03'0 0.0
2018-Jun-16 10:28N 68°59' E 033°04'0 0.0
2018-Jun-16 09:58N 68°59' E 033°04'0 0.0
2018-Jun-16 09:28N 68°59' E 033°03'0 0.0
2018-Jun-16 08:58N 68°59' E 033°04'0 0.0
2018-Jun-16 08:28N 68°59' E 033°04'0 0.0
2018-Jun-16 07:58N 68°59' E 033°04'0 0.0
2018-Jun-16 07:28N 68°59' E 033°04'0 0.0
2018-Jun-16 06:58N 68°59' E 033°04'0 0.0
2018-Jun-16 06:28N 68°59' E 033°04'0 0.0
2018-Jun-16 05:58N 68°59' E 033°04'0 0.0
2018-Jun-16 05:28N 68°59' E 033°04'0 0.0
2018-Jun-16 04:58N 68°59' E 033°04'0 0.0
2018-Jun-16 04:28N 68°59' E 033°03'0 0.0
2018-Jun-16 03:58N 68°59' E 033°03'0 0.0
2018-Jun-16 03:28N 68°59' E 033°03'0 0.0
2018-Jun-16 02:58N 68°59' E 033°03'0 0.0
2018-Jun-16 02:28N 68°59' E 033°03'0 0.0
2018-Jun-16 01:58N 68°59' E 033°03'0 0.0
2018-Jun-16 01:28N 68°59' E 033°03'0 0.0
2018-Jun-16 00:58N 68°59' E 033°04'0 0.0
2018-Jun-16 00:28N 68°59' E 033°04'0 0.0
2018-Jun-15 23:58N 68°59' E 033°03'0 0.0
2018-Jun-15 23:28N 68°59' E 033°04'0 0.0
2018-Jun-15 22:58N 68°59' E 033°04'0 0.0
2018-Jun-15 22:28N 68°59' E 033°04'0 0.0
2018-Jun-15 21:58N 68°59' E 033°04'0 0.0
2018-Jun-15 21:28N 68°59' E 033°03'0 0.0
2018-Jun-15 20:58N 68°59' E 033°04'0 0.0
2018-Jun-15 20:28N 68°59' E 033°03'0 0.0
2018-Jun-15 19:49N 68°59' E 033°04'0 0.0
2018-Jun-15 19:28N 68°59' E 033°03'0 0.0
2018-Jun-15 18:58N 68°59' E 033°03'0 0.0
2018-Jun-15 18:28N 68°59' E 033°03'0 0.0
2018-Jun-15 17:58N 68°59' E 033°03'0 0.0
2018-Jun-15 17:28N 68°59' E 033°03'0 0.0
2018-Jun-15 16:58N 68°59' E 033°04'0 0.0
2018-Jun-15 16:30N 68°59' E 033°03'1 2.5
2018-Jun-15 16:00N 69°00' E 033°03'1 1.2
2018-Jun-15 15:30N 68°60' E 033°03'1 1.3
2018-Jun-15 15:00N 68°59' E 033°03'0 0.2
2018-Jun-15 14:28N 68°59' E 033°03'0 0.0
2018-Jun-15 13:58N 68°59' E 033°03'0 0.0
2018-Jun-15 13:28N 68°59' E 033°04'0 0.0
2018-Jun-15 12:58N 68°59' E 033°04'0 0.0
2018-Jun-15 12:28N 68°59' E 033°03'0 0.0
2018-Jun-15 11:58N 68°59' E 033°04'0 0.0
2018-Jun-15 11:28N 68°59' E 033°04'0 0.0
2018-Jun-15 10:58N 68°59' E 033°03'0 0.0
2018-Jun-15 10:28N 68°59' E 033°04'0 0.0
2018-Jun-15 09:58N 68°59' E 033°04'0 0.0
2018-Jun-15 09:28N 68°59' E 033°04'0 0.0
2018-Jun-15 08:58N 68°59' E 033°04'2 3.5
2018-Jun-15 08:30N 68°58' E 033°02'0 0.5
2018-Jun-15 08:00N 68°57' E 033°02'0 0.1
2018-Jun-15 07:30N 68°57' E 033°02'0 0.5
2018-Jun-15 07:00N 68°58' E 033°02'0 0.3
2018-Jun-15 06:31N 68°58' E 033°02'0 0.4
2018-Jun-15 06:01N 68°58' E 033°02'2 3.2
2018-Jun-15 05:31N 68°59' E 033°03'0 0.3
2018-Jun-15 04:58N 68°59' E 033°03'0 0.0
2018-Jun-15 04:28N 68°59' E 033°03'0 0.0
2018-Jun-15 03:58N 68°59' E 033°03'0 0.0
2018-Jun-15 03:28N 68°59' E 033°03'0 0.0
2018-Jun-15 02:58N 68°59' E 033°03'0 0.0
2018-Jun-15 02:28N 68°59' E 033°03'0 0.0
2018-Jun-15 01:58N 68°59' E 033°03'0 0.0
2018-Jun-15 01:28N 68°59' E 033°03'0 0.0
2018-Jun-15 00:58N 68°59' E 033°03'0 0.0
2018-Jun-15 00:28N 68°59' E 033°04'0 0.0
2018-Jun-14 23:58N 68°59' E 033°03'0 0.0
2018-Jun-14 23:28N 68°59' E 033°04'0 0.0
2018-Jun-14 22:58N 68°59' E 033°04'0 0.0
2018-Jun-14 22:28N 68°59' E 033°03'0 0.0
2018-Jun-14 21:58N 68°59' E 033°03'0 0.0
2018-Jun-14 21:28N 68°59' E 033°03'0 0.0
2018-Jun-14 20:58N 68°59' E 033°04'0 0.0
2018-Jun-14 20:25N 68°59' E 033°03'0 0.0
2018-Jun-14 19:58N 68°59' E 033°03'1 1.9
2018-Jun-14 19:30N 68°60' E 033°02'3 5.2
2018-Jun-14 18:58N 69°03' E 033°04'0 0.2
2018-Jun-14 18:30N 69°03' E 033°04'0 0.0
2018-Jun-14 17:58N 69°03' E 033°04'0 0.0
2018-Jun-14 17:26N 69°03' E 033°04'0 0.3
2018-Jun-14 17:00N 69°03' E 033°04'0 0.2
2018-Jun-14 16:30N 69°03' E 033°04'2 3.1
2018-Jun-14 16:00N 69°01' E 033°03'2 3.7
2018-Jun-14 15:28N 68°59' E 033°04'0 0.0
2018-Jun-14 14:58N 68°59' E 033°04'0 0.0
2018-Jun-14 14:28N 68°59' E 033°03'0 0.0
2018-Jun-14 13:58N 68°59' E 033°04'0 0.0
2018-Jun-14 13:28N 68°59' E 033°03'0 0.0
2018-Jun-14 12:58N 68°59' E 033°03'0 0.0
2018-Jun-14 12:28N 68°59' E 033°04'0 0.0
2018-Jun-14 11:58N 68°59' E 033°04'0 0.0
2018-Jun-14 11:28N 68°59' E 033°04'0 0.0
2018-Jun-14 10:58N 68°59' E 033°03'0 0.0
2018-Jun-14 10:28N 68°59' E 033°03'0 0.0
2018-Jun-14 09:58N 68°59' E 033°04'0 0.0
2018-Jun-14 09:28N 68°59' E 033°04'0 0.0
2018-Jun-14 08:58N 68°59' E 033°04'0 0.0
2018-Jun-14 08:28N 68°59' E 033°04'0 0.0
2018-Jun-14 07:58N 68°59' E 033°03'0 0.2
2018-Jun-14 07:30N 68°59' E 033°03'0 0.2
2018-Jun-14 07:00N 68°59' E 033°04'3 6.8
2018-Jun-14 06:30N 69°03' E 033°03'  
Track history (hours):
 
Tides and Currents Weather Stations Pressure Air Temp Water Temp Dewpoint Dewpoint Depression Visibility Wind Speed Wind Dir Waves Ship Positions

Kildin

Last reported at 2018-Jun-24 06:28 UTC. Time now 2018-Jun-24 06:48 UTC.
Position N 68°59' E 033°04'.

Length 30 m; draft 3.5 m.

Type: Tug. MMSI: 273354290.

Date/timePositionNaut miles runAvg speedWind from/ knotsBaromVisibWave heightAir tempDewpointWater temp
2018-Jun-24 06:28N 68°59' E 033°04'1 2.0
2018-Jun-24 05:58N 68°58' E 033°03'0 0.2
2018-Jun-24 05:28N 68°58' E 033°03'1 3.0
2018-Jun-24 05:00N 68°60' E 033°02'0 0.6
2018-Jun-24 04:25N 68°59' E 033°03'0 0.3
2018-Jun-24 03:58N 68°59' E 033°03'1 2.0
2018-Jun-24 03:30N 69°00' E 033°03'1 1.9
2018-Jun-24 02:58N 68°59' E 033°03'0 0.0
2018-Jun-24 02:28N 68°59' E 033°03'0 0.0
2018-Jun-24 01:58N 68°59' E 033°03'0 0.0
2018-Jun-24 01:28N 68°59' E 033°04'0 0.0
2018-Jun-24 00:58N 68°59' E 033°03'0 0.0
2018-Jun-24 00:28N 68°59' E 033°04'0 0.0
2018-Jun-23 23:58N 68°59' E 033°03'0 0.0
2018-Jun-23 23:28N 68°59' E 033°04'0 0.0
2018-Jun-23 22:58N 68°59' E 033°04'0 0.0
2018-Jun-23 22:28N 68°59' E 033°04'0 0.0
2018-Jun-23 21:58N 68°59' E 033°04'0 0.0
2018-Jun-23 21:28N 68°59' E 033°04'0 0.0
2018-Jun-23 20:58N 68°59' E 033°04'0 0.4
2018-Jun-23 20:28N 68°59' E 033°03'0 0.4
2018-Jun-23 19:58N 68°59' E 033°03'0 0.0
2018-Jun-23 19:25N 68°59' E 033°04'0 0.0
2018-Jun-23 18:58N 68°59' E 033°04'0 0.0
2018-Jun-23 18:25N 68°59' E 033°03'0 0.0
2018-Jun-23 17:58N 68°59' E 033°03'0 0.0
2018-Jun-23 17:25N 68°59' E 033°04'0 0.0
2018-Jun-23 16:58N 68°59' E 033°03'0 0.0
2018-Jun-23 16:28N 68°59' E 033°04'0 0.0
2018-Jun-23 15:58N 68°59' E 033°04'0 0.0
2018-Jun-23 15:28N 68°59' E 033°04'0 0.0
2018-Jun-23 14:58N 68°59' E 033°04'0 0.0
2018-Jun-23 14:28N 68°59' E 033°04'3 5.7
2018-Jun-23 14:00N 68°57' E 033°01'1 1.4
2018-Jun-23 13:30N 68°57' E 033°01'2 3.5
2018-Jun-23 12:58N 68°59' E 033°04'0 0.0
2018-Jun-23 12:28N 68°59' E 033°04'0 0.0
2018-Jun-23 11:58N 68°59' E 033°04'0 0.0
2018-Jun-23 11:28N 68°59' E 033°03'0 0.0
2018-Jun-23 10:58N 68°59' E 033°04'0 0.0
2018-Jun-23 10:28N 68°59' E 033°03'0 0.0
2018-Jun-23 09:58N 68°59' E 033°04'0 0.0
2018-Jun-23 09:28N 68°59' E 033°04'0 0.0
2018-Jun-23 08:58N 68°59' E 033°03'0 0.0
2018-Jun-23 08:28N 68°59' E 033°04'0 0.0
2018-Jun-23 07:58N 68°59' E 033°04'0 0.0
2018-Jun-23 07:28N 68°59' E 033°04'0 0.0
2018-Jun-23 06:58N 68°59' E 033°03'0 0.0
2018-Jun-23 06:28N 68°59' E 033°04'0 0.0
2018-Jun-23 05:58N 68°59' E 033°04'0 0.0
2018-Jun-23 05:28N 68°59' E 033°04'0 0.0
2018-Jun-23 04:58N 68°59' E 033°04'0 0.0
2018-Jun-23 04:28N 68°59' E 033°03'0 0.0
2018-Jun-23 03:58N 68°59' E 033°03'0 0.0
2018-Jun-23 03:28N 68°59' E 033°03'0 0.0
2018-Jun-23 02:58N 68°59' E 033°03'0 0.0
2018-Jun-23 02:22N 68°59' E 033°03'0 0.0
2018-Jun-23 01:58N 68°59' E 033°03'0 0.0
2018-Jun-23 01:28N 68°59' E 033°04'0 0.0
2018-Jun-23 00:58N 68°59' E 033°03'0 0.0
2018-Jun-23 00:28N 68°59' E 033°03'0 0.0
2018-Jun-22 23:58N 68°59' E 033°04'0 0.0
2018-Jun-22 23:28N 68°59' E 033°03'0 0.0
2018-Jun-22 22:58N 68°59' E 033°03'0 0.0
2018-Jun-22 22:28N 68°59' E 033°03'0 0.0
2018-Jun-22 21:58N 68°59' E 033°04'0 0.0
2018-Jun-22 21:28N 68°59' E 033°04'0 0.0
2018-Jun-22 20:58N 68°59' E 033°04'0 0.0
2018-Jun-22 20:28N 68°59' E 033°04'0 0.0
2018-Jun-22 19:58N 68°59' E 033°03'0 0.0
2018-Jun-22 19:28N 68°59' E 033°04'0 0.0
2018-Jun-22 18:58N 68°59' E 033°03'0 0.0
2018-Jun-22 18:28N 68°59' E 033°03'0 0.0
2018-Jun-22 17:58N 68°59' E 033°04'0 0.0
2018-Jun-22 17:28N 68°59' E 033°04'0 0.0
2018-Jun-22 16:58N 68°59' E 033°03'0 0.0
2018-Jun-22 16:28N 68°59' E 033°04'0 0.0
2018-Jun-22 15:58N 68°59' E 033°04'0 0.0
2018-Jun-22 15:28N 68°59' E 033°04'0 0.0
2018-Jun-22 14:58N 68°59' E 033°03'0 0.0
2018-Jun-22 14:28N 68°59' E 033°03'0 0.0
2018-Jun-22 13:58N 68°59' E 033°03'0 0.0
2018-Jun-22 13:28N 68°59' E 033°04'0 0.0
2018-Jun-22 12:58N 68°59' E 033°04'0 0.0
2018-Jun-22 12:28N 68°59' E 033°04'0 0.0
2018-Jun-22 11:58N 68°59' E 033°04'0 0.0
2018-Jun-22 11:28N 68°59' E 033°04'0 0.0
2018-Jun-22 10:58N 68°59' E 033°03'0 0.0
2018-Jun-22 10:28N 68°59' E 033°04'0 0.9
2018-Jun-22 10:00N 68°59' E 033°03'0 0.2
2018-Jun-22 09:30N 68°59' E 033°03'0 0.1
2018-Jun-22 09:00N 68°59' E 033°03'0 0.9
2018-Jun-22 08:28N 68°59' E 033°04'0 0.0
2018-Jun-22 07:58N 68°59' E 033°04'0 0.0
2018-Jun-22 07:28N 68°59' E 033°04'0 0.0
2018-Jun-22 06:58N 68°59' E 033°04'0 0.0
2018-Jun-22 06:28N 68°59' E 033°03'0 0.0
2018-Jun-22 05:58N 68°59' E 033°04'0 0.2
2018-Jun-22 05:28N 68°59' E 033°04'0 0.4
2018-Jun-22 04:58N 68°59' E 033°03'1 1.9
2018-Jun-22 04:29N 68°60' E 033°03'3 6.0
2018-Jun-22 04:00N 69°03' E 033°03'1 0.4
2018-Jun-22 02:26N 69°03' E 033°04'3 6.7
2018-Jun-22 02:00N 69°00' E 033°03'1 2.4
2018-Jun-22 01:28N 68°59' E 033°03'0 0.0
2018-Jun-22 00:58N 68°59' E 033°04'0 0.0
2018-Jun-22 00:28N 68°59' E 033°03'1 1.3
2018-Jun-21 23:58N 68°59' E 033°03'1 1.3
2018-Jun-21 23:28N 68°59' E 033°04'0 0.0
2018-Jun-21 22:58N 68°59' E 033°03'0 0.0
2018-Jun-21 22:28N 68°59' E 033°04'0 0.0
2018-Jun-21 21:58N 68°59' E 033°04'0 0.0
2018-Jun-21 21:28N 68°59' E 033°04'0 0.0
2018-Jun-21 20:58N 68°59' E 033°03'0 0.0
2018-Jun-21 20:28N 68°59' E 033°04'0 0.0
2018-Jun-21 19:58N 68°59' E 033°04'0 0.0
2018-Jun-21 19:28N 68°59' E 033°03'0 0.0
2018-Jun-21 18:58N 68°59' E 033°03'0 0.0
2018-Jun-21 18:28N 68°59' E 033°03'0 0.0
2018-Jun-21 17:58N 68°59' E 033°04'0 0.0
2018-Jun-21 17:25N 68°59' E 033°04'0 0.0
2018-Jun-21 13:58N 68°59' E 033°04'0 0.0
2018-Jun-21 13:13N 68°59' E 033°04'0 0.0
2018-Jun-21 12:55N 68°59' E 033°04'0 0.0
2018-Jun-21 12:27N 68°59' E 033°04'0 0.9
2018-Jun-21 11:57N 68°59' E 033°03'0 1.0
2018-Jun-21 11:30N 68°59' E 033°03'0 0.6
2018-Jun-21 10:56N 68°59' E 033°04'0 1.0
2018-Jun-21 10:30N 68°59' E 033°03'0 0.9
2018-Jun-21 10:00N 68°59' E 033°03'0 0.0
2018-Jun-21 09:30N 68°59' E 033°03'0 0.2
2018-Jun-21 08:52N 68°59' E 033°03'0 0.5
2018-Jun-21 08:26N 68°59' E 033°03'0 0.1
2018-Jun-21 06:16N 68°59' E 033°04'0 0.0
2018-Jun-21 04:46N 68°59' E 033°03'0 0.0
2018-Jun-21 02:55N 68°59' E 033°03'0 0.0
2018-Jun-21 02:28N 68°59' E 033°03'0 0.0
2018-Jun-21 01:58N 68°59' E 033°03'0 0.0
2018-Jun-21 01:28N 68°59' E 033°03'0 0.0
2018-Jun-21 00:58N 68°59' E 033°03'0 0.0
2018-Jun-21 00:28N 68°59' E 033°03'0 0.0
2018-Jun-20 23:58N 68°59' E 033°04'0 0.0
2018-Jun-20 23:28N 68°59' E 033°04'0 0.0
2018-Jun-20 22:58N 68°59' E 033°03'0 0.0
2018-Jun-20 22:28N 68°59' E 033°04'0 0.0
2018-Jun-20 21:58N 68°59' E 033°04'0 0.0
2018-Jun-20 21:28N 68°59' E 033°04'0 0.0
2018-Jun-20 20:58N 68°59' E 033°03'0 0.0
2018-Jun-20 20:28N 68°59' E 033°03'0 0.0
2018-Jun-20 19:58N 68°59' E 033°04'0 0.0
2018-Jun-20 19:28N 68°59' E 033°04'0 0.0
2018-Jun-20 18:58N 68°59' E 033°03'0 0.0
2018-Jun-20 18:28N 68°59' E 033°04'0 0.0
2018-Jun-20 17:58N 68°59' E 033°03'0 0.0
2018-Jun-20 17:28N 68°59' E 033°04'0 0.0
2018-Jun-20 16:58N 68°59' E 033°03'0 0.0
2018-Jun-20 16:28N 68°59' E 033°04'0 0.0
2018-Jun-20 15:58N 68°59' E 033°03'0 0.0
2018-Jun-20 15:28N 68°59' E 033°03'0 0.0
2018-Jun-20 14:58N 68°59' E 033°04'0 0.0
2018-Jun-20 14:28N 68°59' E 033°04'0 0.0
2018-Jun-20 13:58N 68°59' E 033°04'0 0.0
2018-Jun-20 13:28N 68°59' E 033°03'0 0.0
2018-Jun-20 12:58N 68°59' E 033°04'0 0.0
2018-Jun-20 12:28N 68°59' E 033°04'0 0.0
2018-Jun-20 11:58N 68°59' E 033°04'0 0.0
2018-Jun-20 11:28N 68°59' E 033°03'0 0.0
2018-Jun-20 10:58N 68°59' E 033°04'0 0.0
2018-Jun-20 10:28N 68°59' E 033°04'0 0.0
2018-Jun-20 09:58N 68°59' E 033°03'0 0.0
2018-Jun-20 09:28N 68°59' E 033°04'0 0.0
2018-Jun-20 08:55N 68°59' E 033°04'0 0.0
2018-Jun-20 08:28N 68°59' E 033°04'0 0.0
2018-Jun-20 07:58N 68°59' E 033°04'0 0.0
2018-Jun-20 07:28N 68°59' E 033°03'0 0.0
2018-Jun-20 06:58N 68°59' E 033°04'0 0.0
2018-Jun-20 06:28N 68°59' E 033°04'0 0.0
2018-Jun-20 05:58N 68°59' E 033°04'0 0.0
2018-Jun-20 05:28N 68°59' E 033°04'0 0.0
2018-Jun-20 04:58N 68°59' E 033°04'0 0.0
2018-Jun-20 04:28N 68°59' E 033°04'0 0.0
2018-Jun-20 03:58N 68°59' E 033°03'0 0.0
2018-Jun-20 03:28N 68°59' E 033°03'0 0.0
2018-Jun-20 02:58N 68°59' E 033°03'0 0.0
2018-Jun-20 02:28N 68°59' E 033°03'0 0.0
2018-Jun-20 01:58N 68°59' E 033°04'0 0.0
2018-Jun-20 01:28N 68°59' E 033°04'0 0.0
2018-Jun-20 00:58N 68°59' E 033°03'0 0.0
2018-Jun-20 00:28N 68°59' E 033°03'0 0.0
2018-Jun-19 23:58N 68°59' E 033°04'0 0.0
2018-Jun-19 23:25N 68°59' E 033°03'0 0.0
2018-Jun-19 22:58N 68°59' E 033°03'0 0.0
2018-Jun-19 22:28N 68°59' E 033°04'0 0.0
2018-Jun-19 21:58N 68°59' E 033°04'0 0.0
2018-Jun-19 21:28N 68°59' E 033°04'0 0.0
2018-Jun-19 20:58N 68°59' E 033°03'0 0.0
2018-Jun-19 20:28N 68°59' E 033°04'0 0.0
2018-Jun-19 19:58N 68°59' E 033°04'0 0.0
2018-Jun-19 19:28N 68°59' E 033°03'0 0.0
2018-Jun-19 18:58N 68°59' E 033°04'0 0.0
2018-Jun-19 18:28N 68°59' E 033°04'0 0.0
2018-Jun-19 17:58N 68°59' E 033°03'0 0.0
2018-Jun-19 17:28N 68°59' E 033°04'0 0.1
2018-Jun-19 16:59N 68°59' E 033°03'0 0.3
2018-Jun-19 16:28N 68°59' E 033°03'1 1.2
2018-Jun-19 16:00N 68°60' E 033°02'1 1.0
2018-Jun-19 15:28N 68°59' E 033°03'0 0.3
2018-Jun-19 14:58N 68°59' E 033°04'0 0.0
2018-Jun-19 14:28N 68°59' E 033°03'0 0.0
2018-Jun-19 13:58N 68°59' E 033°03'0 0.0
2018-Jun-19 13:28N 68°59' E 033°04'0 0.0
2018-Jun-19 12:58N 68°59' E 033°04'1 2.6
2018-Jun-19 12:30N 69°00' E 033°02'3 0.4
2018-Jun-19 04:47N 69°03' E 033°05'2 6.7
2018-Jun-19 04:29N 69°01' E 033°03'2 4.3
2018-Jun-19 04:00N 68°59' E 033°03'0 0.0
2018-Jun-19 03:28N 68°59' E 033°03'0 0.0
2018-Jun-19 02:58N 68°59' E 033°03'0 0.0
2018-Jun-19 02:25N 68°59' E 033°03'0 0.0
2018-Jun-19 01:58N 68°59' E 033°03'0 0.0
2018-Jun-19 01:28N 68°59' E 033°04'0 0.0
2018-Jun-19 00:58N 68°59' E 033°04'0 0.0
2018-Jun-19 00:28N 68°59' E 033°04'0 0.0
2018-Jun-18 23:58N 68°59' E 033°03'0 0.0
2018-Jun-18 23:28N 68°59' E 033°03'0 0.0
2018-Jun-18 22:58N 68°59' E 033°03'0 0.0
2018-Jun-18 22:28N 68°59' E 033°04'0 0.0
2018-Jun-18 21:58N 68°59' E 033°03'0 0.0
2018-Jun-18 21:28N 68°59' E 033°04'0 0.0
2018-Jun-18 20:58N 68°59' E 033°03'0 0.0
2018-Jun-18 20:28N 68°59' E 033°03'0 0.0
2018-Jun-18 19:58N 68°59' E 033°03'0 0.0
2018-Jun-18 19:28N 68°59' E 033°03'0 0.0
2018-Jun-18 18:58N 68°59' E 033°04'0 0.0
2018-Jun-18 18:28N 68°59' E 033°03'0 0.0
2018-Jun-18 17:58N 68°59' E 033°03'0 0.0
2018-Jun-18 17:25N 68°59' E 033°03'0 0.0
2018-Jun-18 16:58N 68°59' E 033°03'0 0.0
2018-Jun-18 16:28N 68°59' E 033°03'0 0.0
2018-Jun-18 15:55N 68°59' E 033°04'0 0.0
2018-Jun-18 15:28N 68°59' E 033°04'0 0.0
2018-Jun-18 14:58N 68°59' E 033°03'0 0.0
2018-Jun-18 14:28N 68°59' E 033°03'0 0.0
2018-Jun-18 13:58N 68°59' E 033°04'0 0.0
2018-Jun-18 13:28N 68°59' E 033°04'0 0.0
2018-Jun-18 12:58N 68°59' E 033°03'0 0.0
2018-Jun-18 12:25N 68°59' E 033°04'0 0.0
2018-Jun-18 11:58N 68°59' E 033°03'0 0.0
2018-Jun-18 11:25N 68°59' E 033°04'0 0.0
2018-Jun-18 10:58N 68°59' E 033°03'0 0.4
2018-Jun-18 10:30N 68°59' E 033°03'3 6.5
2018-Jun-18 10:01N 69°02' E 033°03'1 1.5
2018-Jun-18 09:30N 69°03' E 033°04'0 0.2
2018-Jun-18 08:59N 69°03' E 033°04'0 0.1
2018-Jun-18 06:36N 69°03' E 033°04'1 5.9
2018-Jun-18 06:30N 69°03' E 033°03'3 6.4
2018-Jun-18 06:00N 68°59' E 033°03'0 0.6
2018-Jun-18 05:28N 68°59' E 033°04'0 0.0
2018-Jun-18 04:58N 68°59' E 033°03'0 0.0
2018-Jun-18 04:28N 68°59' E 033°03'0 0.0
2018-Jun-18 03:58N 68°59' E 033°03'0 0.0
2018-Jun-18 03:28N 68°59' E 033°03'0 0.0
2018-Jun-18 02:58N 68°59' E 033°03'0 0.0
2018-Jun-18 02:25N 68°59' E 033°04'0 0.0
2018-Jun-18 01:58N 68°59' E 033°03'0 0.0
2018-Jun-18 01:28N 68°59' E 033°04'0 0.0
2018-Jun-18 00:58N 68°59' E 033°04'0 0.0
2018-Jun-18 00:28N 68°59' E 033°04'0 0.0
2018-Jun-17 23:58N 68°59' E 033°04'0 0.0
2018-Jun-17 23:28N 68°59' E 033°03'0 0.0
2018-Jun-17 22:58N 68°59' E 033°03'0 0.0
2018-Jun-17 22:28N 68°59' E 033°03'0 0.0
2018-Jun-17 21:58N 68°59' E 033°04'0 0.0
2018-Jun-17 21:28N 68°59' E 033°03'0 0.0
2018-Jun-17 20:58N 68°59' E 033°04'0 0.0
2018-Jun-17 20:25N 68°59' E 033°03'0 0.0
2018-Jun-17 19:58N 68°59' E 033°03'0 0.0
2018-Jun-17 19:28N 68°59' E 033°03'0 0.0
2018-Jun-17 18:58N 68°59' E 033°04'0 0.0
2018-Jun-17 18:28N 68°59' E 033°03'0 0.0
2018-Jun-17 17:58N 68°59' E 033°03'0 0.0
2018-Jun-17 17:28N 68°59' E 033°03'0 0.0
2018-Jun-17 16:58N 68°59' E 033°03'0 0.0
2018-Jun-17 16:28N 68°59' E 033°03'0 0.0
2018-Jun-17 15:58N 68°59' E 033°03'0 0.0
2018-Jun-17 15:28N 68°59' E 033°04'0 0.0
2018-Jun-17 14:58N 68°59' E 033°04'0 0.0
2018-Jun-17 14:28N 68°59' E 033°04'0 0.0
2018-Jun-17 13:58N 68°59' E 033°03'0 0.0
2018-Jun-17 13:28N 68°59' E 033°04'0 0.0
2018-Jun-17 12:58N 68°59' E 033°04'0 0.0
2018-Jun-17 12:28N 68°59' E 033°03'0 0.0
2018-Jun-17 11:58N 68°59' E 033°04'0 0.0
2018-Jun-17 11:28N 68°59' E 033°03'0 0.0
2018-Jun-17 10:58N 68°59' E 033°03'0 0.0
2018-Jun-17 10:28N 68°59' E 033°03'0 0.0
2018-Jun-17 09:58N 68°59' E 033°04'0 0.0
2018-Jun-17 09:28N 68°59' E 033°03'0 0.0
2018-Jun-17 08:58N 68°59' E 033°04'0 0.0
2018-Jun-17 08:28N 68°59' E 033°03'0 0.0
2018-Jun-17 07:58N 68°59' E 033°04'0 0.0
2018-Jun-17 07:28N 68°59' E 033°03'0 0.0
2018-Jun-17 06:58N 68°59' E 033°04'0 0.0
2018-Jun-17 06:28N 68°59' E 033°04'0 0.0
2018-Jun-17 05:58N 68°59' E 033°04'0 0.0
2018-Jun-17 05:28N 68°59' E 033°03'0 0.0
2018-Jun-17 04:58N 68°59' E 033°03'0 0.0
2018-Jun-17 04:28N 68°59' E 033°03'0 0.0
2018-Jun-17 03:58N 68°59' E 033°03'0 0.0
2018-Jun-17 03:28N 68°59' E 033°03'0 0.0
2018-Jun-17 02:58N 68°59' E 033°03'2 3.1
2018-Jun-17 02:28N 69°00' E 033°01'2 3.3
2018-Jun-17 02:00N 68°59' E 033°03'0 0.1
2018-Jun-17 01:25N 68°59' E 033°03'0 0.0
2018-Jun-17 00:58N 68°59' E 033°03'0 0.0
2018-Jun-17 00:28N 68°59' E 033°04'0 0.0
2018-Jun-16 23:58N 68°59' E 033°04'0 0.0
2018-Jun-16 23:28N 68°59' E 033°04'0 0.0
2018-Jun-16 22:58N 68°59' E 033°03'0 0.0
2018-Jun-16 22:28N 68°59' E 033°04'0 0.0
2018-Jun-16 21:58N 68°59' E 033°04'0 0.0
2018-Jun-16 21:28N 68°59' E 033°03'0 0.0
2018-Jun-16 20:58N 68°59' E 033°03'0 0.0
2018-Jun-16 20:28N 68°59' E 033°03'0 0.0
2018-Jun-16 19:58N 68°59' E 033°03'0 0.0
2018-Jun-16 19:28N 68°59' E 033°03'0 0.0
2018-Jun-16 18:58N 68°59' E 033°03'0 0.0
2018-Jun-16 18:28N 68°59' E 033°03'0 0.0
2018-Jun-16 17:58N 68°59' E 033°03'0 0.0
2018-Jun-16 17:28N 68°59' E 033°03'0 0.0
2018-Jun-16 16:58N 68°59' E 033°03'0 0.0
2018-Jun-16 16:28N 68°59' E 033°04'0 0.0
2018-Jun-16 15:58N 68°59' E 033°04'0 0.0
2018-Jun-16 15:28N 68°59' E 033°04'0 0.0
2018-Jun-16 14:58N 68°59' E 033°03'0 0.0
2018-Jun-16 14:28N 68°59' E 033°03'0 0.0
2018-Jun-16 13:58N 68°59' E 033°04'0 0.0
2018-Jun-16 13:28N 68°59' E 033°04'0 0.0
2018-Jun-16 12:58N 68°59' E 033°04'0 0.0
2018-Jun-16 12:28N 68°59' E 033°04'0 0.0
2018-Jun-16 11:58N 68°59' E 033°04'0 0.0
2018-Jun-16 11:28N 68°59' E 033°04'0 0.0
2018-Jun-16 10:58N 68°59' E 033°03'0 0.0
2018-Jun-16 10:28N 68°59' E 033°04'0 0.0
2018-Jun-16 09:58N 68°59' E 033°04'0 0.0
2018-Jun-16 09:28N 68°59' E 033°03'0 0.0
2018-Jun-16 08:58N 68°59' E 033°04'0 0.0
2018-Jun-16 08:28N 68°59' E 033°04'0 0.0
2018-Jun-16 07:58N 68°59' E 033°04'0 0.0
2018-Jun-16 07:28N 68°59' E 033°04'0 0.0
2018-Jun-16 06:58N 68°59' E 033°04'0 0.0
2018-Jun-16 06:28N 68°59' E 033°04'0 0.0
2018-Jun-16 05:58N 68°59' E 033°04'0 0.0
2018-Jun-16 05:28N 68°59' E 033°04'0 0.0
2018-Jun-16 04:58N 68°59' E 033°04'0 0.0
2018-Jun-16 04:28N 68°59' E 033°03'0 0.0
2018-Jun-16 03:58N 68°59' E 033°03'0 0.0
2018-Jun-16 03:28N 68°59' E 033°03'0 0.0
2018-Jun-16 02:58N 68°59' E 033°03'0 0.0
2018-Jun-16 02:28N 68°59' E 033°03'0 0.0
2018-Jun-16 01:58N 68°59' E 033°03'0 0.0
2018-Jun-16 01:28N 68°59' E 033°03'0 0.0
2018-Jun-16 00:58N 68°59' E 033°04'0 0.0
2018-Jun-16 00:28N 68°59' E 033°04'0 0.0
2018-Jun-15 23:58N 68°59' E 033°03'0 0.0
2018-Jun-15 23:28N 68°59' E 033°04'0 0.0
2018-Jun-15 22:58N 68°59' E 033°04'0 0.0
2018-Jun-15 22:28N 68°59' E 033°04'0 0.0
2018-Jun-15 21:58N 68°59' E 033°04'0 0.0
2018-Jun-15 21:28N 68°59' E 033°03'0 0.0
2018-Jun-15 20:58N 68°59' E 033°04'0 0.0
2018-Jun-15 20:28N 68°59' E 033°03'0 0.0
2018-Jun-15 19:49N 68°59' E 033°04'0 0.0
2018-Jun-15 19:28N 68°59' E 033°03'0 0.0
2018-Jun-15 18:58N 68°59' E 033°03'0 0.0
2018-Jun-15 18:28N 68°59' E 033°03'0 0.0
2018-Jun-15 17:58N 68°59' E 033°03'0 0.0
2018-Jun-15 17:28N 68°59' E 033°03'0 0.0
2018-Jun-15 16:58N 68°59' E 033°04'0 0.0
2018-Jun-15 16:30N 68°59' E 033°03'1 2.5
2018-Jun-15 16:00N 69°00' E 033°03'1 1.2
2018-Jun-15 15:30N 68°60' E 033°03'1 1.3
2018-Jun-15 15:00N 68°59' E 033°03'0 0.2
2018-Jun-15 14:28N 68°59' E 033°03'0 0.0
2018-Jun-15 13:58N 68°59' E 033°03'0 0.0
2018-Jun-15 13:28N 68°59' E 033°04'0 0.0
2018-Jun-15 12:58N 68°59' E 033°04'0 0.0
2018-Jun-15 12:28N 68°59' E 033°03'0 0.0
2018-Jun-15 11:58N 68°59' E 033°04'0 0.0
2018-Jun-15 11:28N 68°59' E 033°04'0 0.0
2018-Jun-15 10:58N 68°59' E 033°03'0 0.0
2018-Jun-15 10:28N 68°59' E 033°04'0 0.0
2018-Jun-15 09:58N 68°59' E 033°04'0 0.0
2018-Jun-15 09:28N 68°59' E 033°04'0 0.0
2018-Jun-15 08:58N 68°59' E 033°04'2 3.5
2018-Jun-15 08:30N 68°58' E 033°02'0 0.5
2018-Jun-15 08:00N 68°57' E 033°02'0 0.1
2018-Jun-15 07:30N 68°57' E 033°02'0 0.5
2018-Jun-15 07:00N 68°58' E 033°02'0 0.3
2018-Jun-15 06:31N 68°58' E 033°02'0 0.4
2018-Jun-15 06:01N 68°58' E 033°02'2 3.2
2018-Jun-15 05:31N 68°59' E 033°03'0 0.3
2018-Jun-15 04:58N 68°59' E 033°03'0 0.0
2018-Jun-15 04:28N 68°59' E 033°03'0 0.0
2018-Jun-15 03:58N 68°59' E 033°03'0 0.0
2018-Jun-15 03:28N 68°59' E 033°03'0 0.0
2018-Jun-15 02:58N 68°59' E 033°03'0 0.0
2018-Jun-15 02:28N 68°59' E 033°03'0 0.0
2018-Jun-15 01:58N 68°59' E 033°03'0 0.0
2018-Jun-15 01:28N 68°59' E 033°03'0 0.0
2018-Jun-15 00:58N 68°59' E 033°03'0 0.0
2018-Jun-15 00:28N 68°59' E 033°04'0 0.0
2018-Jun-14 23:58N 68°59' E 033°03'0 0.0
2018-Jun-14 23:28N 68°59' E 033°04'0 0.0
2018-Jun-14 22:58N 68°59' E 033°04'0 0.0
2018-Jun-14 22:28N 68°59' E 033°03'0 0.0
2018-Jun-14 21:58N 68°59' E 033°03'0 0.0
2018-Jun-14 21:28N 68°59' E 033°03'0 0.0
2018-Jun-14 20:58N 68°59' E 033°04'0 0.0
2018-Jun-14 20:25N 68°59' E 033°03'0 0.0
2018-Jun-14 19:58N 68°59' E 033°03'1 1.9
2018-Jun-14 19:30N 68°60' E 033°02'3 5.2
2018-Jun-14 18:58N 69°03' E 033°04'0 0.2
2018-Jun-14 18:30N 69°03' E 033°04'0 0.0
2018-Jun-14 17:58N 69°03' E 033°04'0 0.0
2018-Jun-14 17:26N 69°03' E 033°04'0 0.3
2018-Jun-14 17:00N 69°03' E 033°04'0 0.2
2018-Jun-14 16:30N 69°03' E 033°04'2 3.1
2018-Jun-14 16:00N 69°01' E 033°03'2 3.7
2018-Jun-14 15:28N 68°59' E 033°04'0 0.0
2018-Jun-14 14:58N 68°59' E 033°04'0 0.0
2018-Jun-14 14:28N 68°59' E 033°03'0 0.0
2018-Jun-14 13:58N 68°59' E 033°04'0 0.0
2018-Jun-14 13:28N 68°59' E 033°03'0 0.0
2018-Jun-14 12:58N 68°59' E 033°03'0 0.0
2018-Jun-14 12:28N 68°59' E 033°04'0 0.0
2018-Jun-14 11:58N 68°59' E 033°04'0 0.0
2018-Jun-14 11:28N 68°59' E 033°04'0 0.0
2018-Jun-14 10:58N 68°59' E 033°03'0 0.0
2018-Jun-14 10:28N 68°59' E 033°03'0 0.0
2018-Jun-14 09:58N 68°59' E 033°04'0 0.0
2018-Jun-14 09:28N 68°59' E 033°04'0 0.0
2018-Jun-14 08:58N 68°59' E 033°04'0 0.0
2018-Jun-14 08:28N 68°59' E 033°04'0 0.0
2018-Jun-14 07:58N 68°59' E 033°03'0 0.2
2018-Jun-14 07:30N 68°59' E 033°03'0 0.2
2018-Jun-14 07:00N 68°59' E 033°04'3 6.8
2018-Jun-14 06:30N 69°03' E 033°03'  

Dump ship's entire track history